Huvudsida
METAR-TAF:

METAR-TAF

Flygplatser :

Bardufoss flygplats

Bardufoss, Norge

latitud: 69-04N, longitud: 018-32E, höjd: 7 m

Aktuellt väderrapport

Denna rapport gjordes för 32 minuter sedan, klockan 12:20 UTC
Vind 5 kt från syd, varierande mellan sydost och sydväst
Temperatur 19°C
Fuktighet 43%
Tryck 1000 hPa
Sikt 10 km eller mer
Få moln på en höjd av 4000 ft
Spridda moln på en höjd av 5000 ft

METAR: ENDU 181220Z 19005KT 140V230 9999 FEW040 SCT050 19/06 Q1000 RMK WIND 1100FT 17012KT WIND 2200FT 17015KT

Tid: 14:52 (12:52 UTC)

Väderprognos

Prognos gäller från 18 kl. 12 UTC till 19 kl. 12 UTC
Vind 8 kt från syd/sydväst
Sikt 10 km eller mer
Få moln på en höjd av 2000 ft
Brutna moln på en höjd av 4500 ft
Temporärt
från 19 kl. 00 UTC till 19 kl. 06 UTC
Brutna moln på en höjd av 1400 ft
regn

TAF: ENDU 1812/1912 21008KT 9999 FEW020 BKN045 TEMPO 1900/1906 RA BKN014

Aktuella väderrapporter och prognoser från 4000 flygplatser (METAR- och TAF-rapporter).

De tillgängliga stationerna syns som gula och röda prickar på kartan.

För musen över prickarna för att se namnen på stationerna.

Klicka sedan för att få väderrapporter och prognoser.

För att ändra kartan: Klicka på de gröna knapparna med ett svart kors på för att zooma in; den gröna knappen med ett streck på för att zooma ut; eller på de gröna pilarna för angränsande kartor.


METAR-TAF: